sensor_id;sensor_type;location;lat;lon;timestamp;P1;durP1;ratioP1;P2;durP2;ratioP2
21769;SDS011;11046;49.558;8.674;2023-05-10T00:00:46;2.72;;;1.30;;
21769;SDS011;11046;49.558;8.674;2023-05-10T00:03:46;1.75;;;1.40;;
21769;SDS011;11046;49.558;8.674;2023-05-10T00:06:47;2.72;;;1.30;;
21769;SDS011;11046;49.558;8.674;2023-05-10T00:09:47;2.38;;;1.77;;
21769;SDS011;11046;49.558;8.674;2023-05-10T00:12:48;2.30;;;1.52;;
21769;SDS011;11046;49.558;8.674;2023-05-10T00:15:48;4.45;;;1.90;;
21769;SDS011;11046;49.558;8.674;2023-05-10T00:18:49;3.35;;;2.25;;
21769;SDS011;11046;49.558;8.674;2023-05-10T00:21:50;3.90;;;2.70;;
21769;SDS011;11046;49.558;8.674;2023-05-10T00:24:50;6.57;;;3.00;;
21769;SDS011;11046;49.558;8.674;2023-05-10T00:27:51;5.38;;;3.20;;
21769;SDS011;11046;49.558;8.674;2023-05-10T00:30:52;6.70;;;3.53;;
21769;SDS011;11046;49.558;8.674;2023-05-10T00:33:52;5.28;;;3.30;;
21769;SDS011;11046;49.558;8.674;2023-05-10T00:36:53;5.10;;;2.97;;
21769;SDS011;11046;49.558;8.674;2023-05-10T00:39:53;3.70;;;2.90;;
21769;SDS011;11046;49.558;8.674;2023-05-10T00:42:54;7.53;;;3.20;;
21769;SDS011;11046;49.558;8.674;2023-05-10T00:45:55;3.85;;;2.58;;
21769;SDS011;11046;49.558;8.674;2023-05-10T00:48:56;3.72;;;2.60;;
21769;SDS011;11046;49.558;8.674;2023-05-10T00:51:57;4.22;;;2.40;;
21769;SDS011;11046;49.558;8.674;2023-05-10T00:54:58;5.43;;;2.97;;
21769;SDS011;11046;49.558;8.674;2023-05-10T00:57:58;3.40;;;2.50;;
21769;SDS011;11046;49.558;8.674;2023-05-10T01:00:59;3.50;;;2.53;;
21769;SDS011;11046;49.558;8.674;2023-05-10T01:04:01;3.03;;;2.10;;
21769;SDS011;11046;49.558;8.674;2023-05-10T01:07:03;5.47;;;2.17;;
21769;SDS011;11046;49.558;8.674;2023-05-10T01:10:04;5.90;;;2.50;;
21769;SDS011;11046;49.558;8.674;2023-05-10T01:13:06;4.72;;;2.30;;
21769;SDS011;11046;49.558;8.674;2023-05-10T01:16:06;2.67;;;2.15;;
21769;SDS011;11046;49.558;8.674;2023-05-10T01:19:23;7.38;;;1.88;;
21769;SDS011;11046;49.558;8.674;2023-05-10T01:32:21;3.88;;;1.95;;
21769;SDS011;11046;49.558;8.674;2023-05-10T01:35:54;4.32;;;2.25;;
21769;SDS011;11046;49.558;8.674;2023-05-10T01:42:21;2.25;;;1.77;;
21769;SDS011;11046;49.558;8.674;2023-05-10T01:45:54;2.28;;;1.73;;
21769;SDS011;11046;49.558;8.674;2023-05-10T01:49:00;2.05;;;1.77;;
21769;SDS011;11046;49.558;8.674;2023-05-10T01:52:08;2.15;;;1.90;;
21769;SDS011;11046;49.558;8.674;2023-05-10T01:55:13;5.38;;;1.92;;
21769;SDS011;11046;49.558;8.674;2023-05-10T01:58:27;6.85;;;1.92;;
21769;SDS011;11046;49.558;8.674;2023-05-10T02:01:30;3.30;;;1.65;;
21769;SDS011;11046;49.558;8.674;2023-05-10T02:04:31;2.40;;;1.83;;
21769;SDS011;11046;49.558;8.674;2023-05-10T02:07:35;3.55;;;1.85;;
21769;SDS011;11046;49.558;8.674;2023-05-10T02:10:37;2.38;;;1.38;;
21769;SDS011;11046;49.558;8.674;2023-05-10T02:13:39;1.90;;;1.48;;
21769;SDS011;11046;49.558;8.674;2023-05-10T02:16:41;3.42;;;1.70;;
21769;SDS011;11046;49.558;8.674;2023-05-10T02:19:42;2.75;;;1.70;;
21769;SDS011;11046;49.558;8.674;2023-05-10T02:22:46;2.40;;;1.67;;
21769;SDS011;11046;49.558;8.674;2023-05-10T02:25:49;2.30;;;1.80;;
21769;SDS011;11046;49.558;8.674;2023-05-10T02:28:51;1.70;;;1.50;;
21769;SDS011;11046;49.558;8.674;2023-05-10T02:31:54;6.35;;;1.80;;
21769;SDS011;11046;49.558;8.674;2023-05-10T02:34:55;2.50;;;1.80;;
21769;SDS011;11046;49.558;8.674;2023-05-10T02:37:57;2.67;;;1.70;;
21769;SDS011;11046;49.558;8.674;2023-05-10T02:40:59;2.40;;;1.73;;
21769;SDS011;11046;49.558;8.674;2023-05-10T02:44:00;3.75;;;1.80;;
21769;SDS011;11046;49.558;8.674;2023-05-10T02:47:02;6.35;;;1.83;;
21769;SDS011;11046;49.558;8.674;2023-05-10T02:50:04;2.55;;;1.88;;
21769;SDS011;11046;49.558;8.674;2023-05-10T02:53:15;2.80;;;2.00;;
21769;SDS011;11046;49.558;8.674;2023-05-10T02:56:27;2.53;;;2.13;;
21769;SDS011;11046;49.558;8.674;2023-05-10T02:59:30;3.28;;;2.05;;
21769;SDS011;11046;49.558;8.674;2023-05-10T03:02:32;2.53;;;1.75;;
21769;SDS011;11046;49.558;8.674;2023-05-10T03:05:33;2.30;;;1.80;;
21769;SDS011;11046;49.558;8.674;2023-05-10T03:08:36;3.92;;;1.85;;
21769;SDS011;11046;49.558;8.674;2023-05-10T03:11:55;2.40;;;1.50;;
21769;SDS011;11046;49.558;8.674;2023-05-10T03:18:48;2.58;;;1.83;;
21769;SDS011;11046;49.558;8.674;2023-05-10T03:21:55;2.22;;;1.60;;
21769;SDS011;11046;49.558;8.674;2023-05-10T03:25:07;2.97;;;1.80;;
21769;SDS011;11046;49.558;8.674;2023-05-10T03:28:11;5.07;;;1.70;;
21769;SDS011;11046;49.558;8.674;2023-05-10T03:31:12;3.80;;;1.70;;
21769;SDS011;11046;49.558;8.674;2023-05-10T03:34:14;2.50;;;1.97;;
21769;SDS011;11046;49.558;8.674;2023-05-10T03:37:15;3.70;;;1.88;;
21769;SDS011;11046;49.558;8.674;2023-05-10T03:40:16;5.93;;;2.00;;
21769;SDS011;11046;49.558;8.674;2023-05-10T03:43:17;3.78;;;2.15;;
21769;SDS011;11046;49.558;8.674;2023-05-10T03:46:18;3.15;;;2.17;;
21769;SDS011;11046;49.558;8.674;2023-05-10T03:49:19;4.47;;;1.90;;
21769;SDS011;11046;49.558;8.674;2023-05-10T03:52:20;2.53;;;2.10;;
21769;SDS011;11046;49.558;8.674;2023-05-10T03:55:21;2.47;;;1.98;;
21769;SDS011;11046;49.558;8.674;2023-05-10T03:58:23;5.20;;;2.40;;
21769;SDS011;11046;49.558;8.674;2023-05-10T04:01:23;3.83;;;2.38;;
21769;SDS011;11046;49.558;8.674;2023-05-10T04:04:24;5.40;;;2.30;;
21769;SDS011;11046;49.558;8.674;2023-05-10T04:07:25;3.47;;;2.33;;
21769;SDS011;11046;49.558;8.674;2023-05-10T04:10:25;3.40;;;2.65;;
21769;SDS011;11046;49.558;8.674;2023-05-10T04:13:26;9.50;;;2.95;;
21769;SDS011;11046;49.558;8.674;2023-05-10T04:16:26;7.30;;;3.67;;
21769;SDS011;11046;49.558;8.674;2023-05-10T04:19:30;3.93;;;3.30;;
21769;SDS011;11046;49.558;8.674;2023-05-10T04:22:31;3.47;;;3.08;;
21769;SDS011;11046;49.558;8.674;2023-05-10T04:25:33;4.18;;;2.88;;
21769;SDS011;11046;49.558;8.674;2023-05-10T04:28:35;5.38;;;3.22;;
21769;SDS011;11046;49.558;8.674;2023-05-10T04:31:35;5.55;;;2.90;;
21769;SDS011;11046;49.558;8.674;2023-05-10T04:34:36;5.23;;;2.77;;
21769;SDS011;11046;49.558;8.674;2023-05-10T04:37:37;4.68;;;2.78;;
21769;SDS011;11046;49.558;8.674;2023-05-10T04:40:37;5.53;;;2.80;;
21769;SDS011;11046;49.558;8.674;2023-05-10T04:43:38;7.53;;;3.10;;
21769;SDS011;11046;49.558;8.674;2023-05-10T04:46:39;6.00;;;3.20;;
21769;SDS011;11046;49.558;8.674;2023-05-10T04:49:39;3.50;;;2.80;;
21769;SDS011;11046;49.558;8.674;2023-05-10T04:52:40;3.90;;;2.80;;
21769;SDS011;11046;49.558;8.674;2023-05-10T04:55:40;3.67;;;2.55;;
21769;SDS011;11046;49.558;8.674;2023-05-10T04:58:41;2.67;;;2.28;;
21769;SDS011;11046;49.558;8.674;2023-05-10T05:01:41;6.72;;;2.55;;
21769;SDS011;11046;49.558;8.674;2023-05-10T05:04:42;5.30;;;2.53;;
21769;SDS011;11046;49.558;8.674;2023-05-10T05:07:43;3.15;;;2.50;;
21769;SDS011;11046;49.558;8.674;2023-05-10T05:10:43;3.42;;;2.72;;
21769;SDS011;11046;49.558;8.674;2023-05-10T05:13:44;4.07;;;2.70;;
21769;SDS011;11046;49.558;8.674;2023-05-10T05:16:45;6.38;;;2.65;;
21769;SDS011;11046;49.558;8.674;2023-05-10T05:19:45;3.42;;;2.50;;
21769;SDS011;11046;49.558;8.674;2023-05-10T05:22:46;3.78;;;2.80;;
21769;SDS011;11046;49.558;8.674;2023-05-10T05:25:46;3.42;;;2.80;;
21769;SDS011;11046;49.558;8.674;2023-05-10T05:28:47;4.30;;;2.73;;
21769;SDS011;11046;49.558;8.674;2023-05-10T05:31:48;4.43;;;2.97;;
21769;SDS011;11046;49.558;8.674;2023-05-10T05:34:49;3.53;;;2.70;;
21769;SDS011;11046;49.558;8.674;2023-05-10T05:37:50;3.03;;;2.67;;
21769;SDS011;11046;49.558;8.674;2023-05-10T05:40:50;3.40;;;2.47;;
21769;SDS011;11046;49.558;8.674;2023-05-10T05:43:51;5.60;;;3.03;;
21769;SDS011;11046;49.558;8.674;2023-05-10T05:46:51;4.07;;;2.60;;
21769;SDS011;11046;49.558;8.674;2023-05-10T05:49:52;6.80;;;2.90;;
21769;SDS011;11046;49.558;8.674;2023-05-10T05:52:53;4.18;;;3.10;;
21769;SDS011;11046;49.558;8.674;2023-05-10T05:55:54;3.60;;;2.92;;
21769;SDS011;11046;49.558;8.674;2023-05-10T05:58:55;7.93;;;4.10;;
21769;SDS011;11046;49.558;8.674;2023-05-10T06:01:56;8.45;;;3.70;;
21769;SDS011;11046;49.558;8.674;2023-05-10T06:04:56;7.75;;;3.72;;
21769;SDS011;11046;49.558;8.674;2023-05-10T06:07:59;4.43;;;3.43;;
21769;SDS011;11046;49.558;8.674;2023-05-10T06:11:01;5.90;;;3.67;;
21769;SDS011;11046;49.558;8.674;2023-05-10T06:14:02;4.22;;;3.30;;
21769;SDS011;11046;49.558;8.674;2023-05-10T06:17:04;4.07;;;2.92;;
21769;SDS011;11046;49.558;8.674;2023-05-10T06:20:05;6.35;;;3.33;;
21769;SDS011;11046;49.558;8.674;2023-05-10T06:23:06;5.40;;;3.22;;
21769;SDS011;11046;49.558;8.674;2023-05-10T06:26:07;6.20;;;3.60;;
21769;SDS011;11046;49.558;8.674;2023-05-10T06:29:07;4.90;;;3.67;;
21769;SDS011;11046;49.558;8.674;2023-05-10T06:32:08;4.57;;;3.72;;
21769;SDS011;11046;49.558;8.674;2023-05-10T06:35:08;5.70;;;3.90;;
21769;SDS011;11046;49.558;8.674;2023-05-10T06:38:09;7.03;;;3.63;;
21769;SDS011;11046;49.558;8.674;2023-05-10T06:41:10;5.88;;;3.58;;
21769;SDS011;11046;49.558;8.674;2023-05-10T06:44:11;5.47;;;3.72;;
21769;SDS011;11046;49.558;8.674;2023-05-10T06:47:12;4.57;;;3.33;;
21769;SDS011;11046;49.558;8.674;2023-05-10T06:50:13;4.75;;;3.20;;
21769;SDS011;11046;49.558;8.674;2023-05-10T06:53:14;4.30;;;3.13;;
21769;SDS011;11046;49.558;8.674;2023-05-10T06:56:15;6.78;;;3.25;;
21769;SDS011;11046;49.558;8.674;2023-05-10T06:59:15;6.45;;;3.35;;
21769;SDS011;11046;49.558;8.674;2023-05-10T07:02:16;5.38;;;3.80;;
21769;SDS011;11046;49.558;8.674;2023-05-10T07:05:17;6.00;;;4.35;;
21769;SDS011;11046;49.558;8.674;2023-05-10T07:08:17;9.25;;;4.15;;
21769;SDS011;11046;49.558;8.674;2023-05-10T07:11:18;6.05;;;3.97;;
21769;SDS011;11046;49.558;8.674;2023-05-10T07:14:19;6.50;;;3.78;;
21769;SDS011;11046;49.558;8.674;2023-05-10T07:17:19;6.03;;;4.75;;
21769;SDS011;11046;49.558;8.674;2023-05-10T07:20:20;4.35;;;3.72;;
21769;SDS011;11046;49.558;8.674;2023-05-10T07:23:21;5.90;;;4.10;;
21769;SDS011;11046;49.558;8.674;2023-05-10T07:26:21;5.47;;;4.60;;
21769;SDS011;11046;49.558;8.674;2023-05-10T07:29:22;5.38;;;3.72;;
21769;SDS011;11046;49.558;8.674;2023-05-10T07:32:22;8.68;;;3.67;;
21769;SDS011;11046;49.558;8.674;2023-05-10T07:35:23;5.43;;;3.15;;
21769;SDS011;11046;49.558;8.674;2023-05-10T07:38:24;6.03;;;3.47;;
21769;SDS011;11046;49.558;8.674;2023-05-10T07:41:24;4.20;;;3.35;;
21769;SDS011;11046;49.558;8.674;2023-05-10T07:44:25;3.50;;;3.20;;
21769;SDS011;11046;49.558;8.674;2023-05-10T07:47:26;5.45;;;3.25;;
21769;SDS011;11046;49.558;8.674;2023-05-10T07:50:27;3.78;;;2.92;;
21769;SDS011;11046;49.558;8.674;2023-05-10T07:53:27;4.75;;;2.78;;
21769;SDS011;11046;49.558;8.674;2023-05-10T07:56:29;4.00;;;2.92;;
21769;SDS011;11046;49.558;8.674;2023-05-10T07:59:31;4.53;;;2.70;;
21769;SDS011;11046;49.558;8.674;2023-05-10T08:02:34;3.25;;;2.45;;
21769;SDS011;11046;49.558;8.674;2023-05-10T08:05:35;2.83;;;2.53;;
21769;SDS011;11046;49.558;8.674;2023-05-10T08:08:35;5.15;;;3.05;;
21769;SDS011;11046;49.558;8.674;2023-05-10T08:11:36;3.53;;;2.75;;
21769;SDS011;11046;49.558;8.674;2023-05-10T08:14:37;3.17;;;2.60;;
21769;SDS011;11046;49.558;8.674;2023-05-10T08:17:37;3.05;;;2.75;;
21769;SDS011;11046;49.558;8.674;2023-05-10T08:20:38;5.07;;;2.67;;
21769;SDS011;11046;49.558;8.674;2023-05-10T08:23:39;5.13;;;2.65;;
21769;SDS011;11046;49.558;8.674;2023-05-10T08:26:39;3.25;;;2.55;;
21769;SDS011;11046;49.558;8.674;2023-05-10T08:29:40;3.65;;;2.78;;
21769;SDS011;11046;49.558;8.674;2023-05-10T08:32:41;4.45;;;2.40;;
21769;SDS011;11046;49.558;8.674;2023-05-10T08:35:41;3.40;;;2.60;;
21769;SDS011;11046;49.558;8.674;2023-05-10T08:38:42;2.88;;;2.50;;
21769;SDS011;11046;49.558;8.674;2023-05-10T08:41:43;3.72;;;2.40;;
21769;SDS011;11046;49.558;8.674;2023-05-10T08:44:47;5.75;;;2.58;;
21769;SDS011;11046;49.558;8.674;2023-05-10T08:47:49;6.70;;;2.40;;
21769;SDS011;11046;49.558;8.674;2023-05-10T08:50:51;2.53;;;2.28;;
21769;SDS011;11046;49.558;8.674;2023-05-10T08:53:53;2.88;;;2.15;;
21769;SDS011;11046;49.558;8.674;2023-05-10T08:56:54;7.68;;;2.33;;
21769;SDS011;11046;49.558;8.674;2023-05-10T08:59:54;2.20;;;2.00;;
21769;SDS011;11046;49.558;8.674;2023-05-10T09:02:55;3.58;;;2.17;;
21769;SDS011;11046;49.558;8.674;2023-05-10T09:05:56;4.60;;;2.20;;
21769;SDS011;11046;49.558;8.674;2023-05-10T09:08:57;2.22;;;1.85;;
21769;SDS011;11046;49.558;8.674;2023-05-10T09:11:58;2.70;;;2.30;;
21769;SDS011;11046;49.558;8.674;2023-05-10T09:14:59;4.95;;;2.17;;
21769;SDS011;11046;49.558;8.674;2023-05-10T09:18:01;2.05;;;1.80;;
21769;SDS011;11046;49.558;8.674;2023-05-10T09:21:02;2.28;;;1.52;;
21769;SDS011;11046;49.558;8.674;2023-05-10T09:24:03;8.63;;;2.17;;
21769;SDS011;11046;49.558;8.674;2023-05-10T09:27:05;3.47;;;1.88;;
21769;SDS011;11046;49.558;8.674;2023-05-10T09:30:06;7.03;;;3.00;;
21769;SDS011;11046;49.558;8.674;2023-05-10T09:33:08;2.97;;;2.33;;
21769;SDS011;11046;49.558;8.674;2023-05-10T09:36:08;23.35;;;4.28;;
21769;SDS011;11046;49.558;8.674;2023-05-10T09:39:09;12.07;;;2.45;;
21769;SDS011;11046;49.558;8.674;2023-05-10T09:42:09;8.10;;;2.40;;
21769;SDS011;11046;49.558;8.674;2023-05-10T09:45:10;3.45;;;2.40;;
21769;SDS011;11046;49.558;8.674;2023-05-10T09:48:11;5.30;;;2.33;;
21769;SDS011;11046;49.558;8.674;2023-05-10T09:54:21;3.38;;;2.17;;
21769;SDS011;11046;49.558;8.674;2023-05-10T09:57:24;4.15;;;2.30;;
21769;SDS011;11046;49.558;8.674;2023-05-10T10:00:26;5.88;;;2.40;;
21769;SDS011;11046;49.558;8.674;2023-05-10T10:03:27;4.72;;;2.60;;
21769;SDS011;11046;49.558;8.674;2023-05-10T10:06:34;3.05;;;2.60;;
21769;SDS011;11046;49.558;8.674;2023-05-10T10:09:39;4.45;;;2.50;;
21769;SDS011;11046;49.558;8.674;2023-05-10T10:12:40;8.60;;;3.53;;
21769;SDS011;11046;49.558;8.674;2023-05-10T10:15:41;3.50;;;2.55;;
21769;SDS011;11046;49.558;8.674;2023-05-10T10:18:43;3.70;;;2.50;;
21769;SDS011;11046;49.558;8.674;2023-05-10T10:21:44;9.98;;;3.42;;
21769;SDS011;11046;49.558;8.674;2023-05-10T10:24:44;12.10;;;3.13;;
21769;SDS011;11046;49.558;8.674;2023-05-10T10:27:56;7.55;;;2.40;;
21769;SDS011;11046;49.558;8.674;2023-05-10T10:31:46;5.18;;;2.40;;
21769;SDS011;11046;49.558;8.674;2023-05-10T10:34:47;12.65;;;2.20;;
21769;SDS011;11046;49.558;8.674;2023-05-10T10:37:48;10.63;;;2.95;;
21769;SDS011;11046;49.558;8.674;2023-05-10T10:41:04;9.23;;;3.10;;
21769;SDS011;11046;49.558;8.674;2023-05-10T10:47:27;4.80;;;3.20;;
21769;SDS011;11046;49.558;8.674;2023-05-10T10:50:30;5.43;;;3.17;;
21769;SDS011;11046;49.558;8.674;2023-05-10T10:53:43;4.60;;;2.80;;
21769;SDS011;11046;49.558;8.674;2023-05-10T10:56:44;6.45;;;3.00;;
21769;SDS011;11046;49.558;8.674;2023-05-10T11:00:19;3.28;;;2.47;;
21769;SDS011;11046;49.558;8.674;2023-05-10T11:03:21;5.68;;;2.70;;
21769;SDS011;11046;49.558;8.674;2023-05-10T11:09:38;15.85;;;2.92;;
21769;SDS011;11046;49.558;8.674;2023-05-10T11:12:50;3.13;;;2.67;;
21769;SDS011;11046;49.558;8.674;2023-05-10T11:20:23;4.90;;;2.83;;
21769;SDS011;11046;49.558;8.674;2023-05-10T11:26:39;4.38;;;2.65;;
21769;SDS011;11046;49.558;8.674;2023-05-10T11:29:40;4.88;;;2.50;;
21769;SDS011;11046;49.558;8.674;2023-05-10T11:32:43;10.25;;;2.55;;
21769;SDS011;11046;49.558;8.674;2023-05-10T11:35:44;6.78;;;2.05;;
21769;SDS011;11046;49.558;8.674;2023-05-10T11:38:46;2.10;;;1.90;;
21769;SDS011;11046;49.558;8.674;2023-05-10T11:41:48;5.13;;;2.35;;
21769;SDS011;11046;49.558;8.674;2023-05-10T11:44:49;8.13;;;2.60;;
21769;SDS011;11046;49.558;8.674;2023-05-10T11:47:50;4.10;;;2.92;;
21769;SDS011;11046;49.558;8.674;2023-05-10T11:50:51;4.72;;;2.92;;
21769;SDS011;11046;49.558;8.674;2023-05-10T11:53:53;4.78;;;2.58;;
21769;SDS011;11046;49.558;8.674;2023-05-10T11:56:55;3.70;;;2.38;;
21769;SDS011;11046;49.558;8.674;2023-05-10T11:59:56;3.38;;;1.65;;
21769;SDS011;11046;49.558;8.674;2023-05-10T12:02:57;5.22;;;1.80;;
21769;SDS011;11046;49.558;8.674;2023-05-10T12:05:58;2.42;;;2.00;;
21769;SDS011;11046;49.558;8.674;2023-05-10T12:09:01;1.65;;;1.38;;
21769;SDS011;11046;49.558;8.674;2023-05-10T12:12:06;3.08;;;1.30;;
21769;SDS011;11046;49.558;8.674;2023-05-10T12:15:11;3.83;;;1.48;;
21769;SDS011;11046;49.558;8.674;2023-05-10T12:18:22;1.60;;;1.40;;
21769;SDS011;11046;49.558;8.674;2023-05-10T12:21:28;4.40;;;1.38;;
21769;SDS011;11046;49.558;8.674;2023-05-10T12:24:30;3.50;;;1.30;;
21769;SDS011;11046;49.558;8.674;2023-05-10T12:27:34;1.95;;;1.13;;
21769;SDS011;11046;49.558;8.674;2023-05-10T12:30:35;5.75;;;1.30;;
21769;SDS011;11046;49.558;8.674;2023-05-10T12:33:37;1.70;;;1.20;;
21769;SDS011;11046;49.558;8.674;2023-05-10T12:36:39;5.28;;;1.13;;
21769;SDS011;11046;49.558;8.674;2023-05-10T12:39:40;5.20;;;1.40;;
21769;SDS011;11046;49.558;8.674;2023-05-10T12:42:42;1.23;;;1.10;;
21769;SDS011;11046;49.558;8.674;2023-05-10T12:45:44;4.32;;;1.45;;
21769;SDS011;11046;49.558;8.674;2023-05-10T12:48:47;1.65;;;1.10;;
21769;SDS011;11046;49.558;8.674;2023-05-10T12:51:54;5.15;;;2.60;;
21769;SDS011;11046;49.558;8.674;2023-05-10T12:54:55;2.13;;;1.20;;
21769;SDS011;11046;49.558;8.674;2023-05-10T12:57:56;3.03;;;1.50;;
21769;SDS011;11046;49.558;8.674;2023-05-10T13:00:57;4.43;;;1.90;;
21769;SDS011;11046;49.558;8.674;2023-05-10T13:03:58;2.25;;;1.33;;
21769;SDS011;11046;49.558;8.674;2023-05-10T13:07:00;2.42;;;1.20;;
21769;SDS011;11046;49.558;8.674;2023-05-10T13:10:00;1.58;;;1.20;;
21769;SDS011;11046;49.558;8.674;2023-05-10T13:13:01;5.22;;;1.38;;
21769;SDS011;11046;49.558;8.674;2023-05-10T13:16:01;3.10;;;1.45;;
21769;SDS011;11046;49.558;8.674;2023-05-10T13:19:02;4.20;;;1.45;;
21769;SDS011;11046;49.558;8.674;2023-05-10T13:22:02;2.05;;;1.08;;
21769;SDS011;11046;49.558;8.674;2023-05-10T13:25:03;2.53;;;1.08;;
21769;SDS011;11046;49.558;8.674;2023-05-10T13:28:04;1.92;;;1.45;;
21769;SDS011;11046;49.558;8.674;2023-05-10T13:31:05;4.50;;;1.30;;
21769;SDS011;11046;49.558;8.674;2023-05-10T13:34:06;3.40;;;1.20;;
21769;SDS011;11046;49.558;8.674;2023-05-10T13:37:06;9.35;;;1.40;;
21769;SDS011;11046;49.558;8.674;2023-05-10T13:40:07;3.00;;;1.30;;
21769;SDS011;11046;49.558;8.674;2023-05-10T13:43:08;1.30;;;1.20;;
21769;SDS011;11046;49.558;8.674;2023-05-10T13:46:08;2.05;;;1.30;;
21769;SDS011;11046;49.558;8.674;2023-05-10T13:49:09;3.45;;;1.30;;
21769;SDS011;11046;49.558;8.674;2023-05-10T13:52:09;2.17;;;1.20;;
21769;SDS011;11046;49.558;8.674;2023-05-10T13:55:10;6.70;;;1.25;;
21769;SDS011;11046;49.558;8.674;2023-05-10T13:58:13;1.35;;;1.17;;
21769;SDS011;11046;49.558;8.674;2023-05-10T14:01:13;3.92;;;1.33;;
21769;SDS011;11046;49.558;8.674;2023-05-10T14:04:14;4.72;;;1.50;;
21769;SDS011;11046;49.558;8.674;2023-05-10T14:07:14;2.38;;;1.23;;
21769;SDS011;11046;49.558;8.674;2023-05-10T14:10:15;2.08;;;1.10;;
21769;SDS011;11046;49.558;8.674;2023-05-10T14:13:15;4.13;;;1.00;;
21769;SDS011;11046;49.558;8.674;2023-05-10T14:16:16;4.35;;;1.10;;
21769;SDS011;11046;49.558;8.674;2023-05-10T14:19:17;2.28;;;0.90;;
21769;SDS011;11046;49.558;8.674;2023-05-10T14:22:17;1.13;;;0.93;;
21769;SDS011;11046;49.558;8.674;2023-05-10T14:25:18;4.63;;;1.10;;
21769;SDS011;11046;49.558;8.674;2023-05-10T14:28:19;3.58;;;0.90;;
21769;SDS011;11046;49.558;8.674;2023-05-10T14:31:20;4.18;;;0.95;;
21769;SDS011;11046;49.558;8.674;2023-05-10T14:34:21;2.05;;;1.00;;
21769;SDS011;11046;49.558;8.674;2023-05-10T14:37:22;2.15;;;0.77;;
21769;SDS011;11046;49.558;8.674;2023-05-10T14:40:22;1.77;;;0.95;;
21769;SDS011;11046;49.558;8.674;2023-05-10T14:43:23;4.07;;;1.00;;
21769;SDS011;11046;49.558;8.674;2023-05-10T14:46:24;2.13;;;1.30;;
21769;SDS011;11046;49.558;8.674;2023-05-10T14:49:24;3.75;;;1.27;;
21769;SDS011;11046;49.558;8.674;2023-05-10T14:52:26;0.98;;;0.80;;
21769;SDS011;11046;49.558;8.674;2023-05-10T14:55:26;3.97;;;1.00;;
21769;SDS011;11046;49.558;8.674;2023-05-10T14:58:27;1.00;;;0.90;;
21769;SDS011;11046;49.558;8.674;2023-05-10T15:01:27;1.02;;;0.73;;
21769;SDS011;11046;49.558;8.674;2023-05-10T15:04:28;2.15;;;0.70;;
21769;SDS011;11046;49.558;8.674;2023-05-10T15:07:29;2.80;;;0.90;;
21769;SDS011;11046;49.558;8.674;2023-05-10T15:10:31;3.65;;;1.00;;
21769;SDS011;11046;49.558;8.674;2023-05-10T15:13:32;0.80;;;0.80;;
21769;SDS011;11046;49.558;8.674;2023-05-10T15:16:33;3.55;;;0.85;;
21769;SDS011;11046;49.558;8.674;2023-05-10T15:19:33;1.20;;;0.82;;
21769;SDS011;11046;49.558;8.674;2023-05-10T15:22:34;2.17;;;0.70;;
21769;SDS011;11046;49.558;8.674;2023-05-10T15:25:34;2.40;;;0.90;;
21769;SDS011;11046;49.558;8.674;2023-05-10T15:28:37;0.77;;;0.75;;
21769;SDS011;11046;49.558;8.674;2023-05-10T15:31:37;0.93;;;0.75;;
21769;SDS011;11046;49.558;8.674;2023-05-10T15:34:39;1.10;;;0.60;;
21769;SDS011;11046;49.558;8.674;2023-05-10T15:37:40;1.27;;;0.68;;
21769;SDS011;11046;49.558;8.674;2023-05-10T15:40:40;1.58;;;0.90;;
21769;SDS011;11046;49.558;8.674;2023-05-10T15:43:41;3.17;;;0.90;;
21769;SDS011;11046;49.558;8.674;2023-05-10T15:46:41;2.20;;;0.80;;
21769;SDS011;11046;49.558;8.674;2023-05-10T15:49:42;2.60;;;0.80;;
21769;SDS011;11046;49.558;8.674;2023-05-10T15:52:42;2.10;;;0.70;;
21769;SDS011;11046;49.558;8.674;2023-05-10T15:55:43;0.75;;;0.75;;
21769;SDS011;11046;49.558;8.674;2023-05-10T15:58:43;1.08;;;0.70;;
21769;SDS011;11046;49.558;8.674;2023-05-10T16:01:44;2.58;;;0.60;;
21769;SDS011;11046;49.558;8.674;2023-05-10T16:04:45;2.55;;;1.15;;
21769;SDS011;11046;49.558;8.674;2023-05-10T16:07:45;0.80;;;0.80;;
21769;SDS011;11046;49.558;8.674;2023-05-10T16:10:46;1.00;;;0.80;;
21769;SDS011;11046;49.558;8.674;2023-05-10T16:13:47;0.85;;;0.80;;
21769;SDS011;11046;49.558;8.674;2023-05-10T16:16:48;3.63;;;1.05;;
21769;SDS011;11046;49.558;8.674;2023-05-10T16:19:49;0.95;;;0.85;;
21769;SDS011;11046;49.558;8.674;2023-05-10T16:22:49;1.65;;;0.80;;
21769;SDS011;11046;49.558;8.674;2023-05-10T16:25:50;1.25;;;0.80;;
21769;SDS011;11046;49.558;8.674;2023-05-10T16:28:51;1.30;;;0.80;;
21769;SDS011;11046;49.558;8.674;2023-05-10T16:31:51;2.45;;;0.70;;
21769;SDS011;11046;49.558;8.674;2023-05-10T16:34:52;1.30;;;0.63;;
21769;SDS011;11046;49.558;8.674;2023-05-10T16:37:52;0.70;;;0.70;;
21769;SDS011;11046;49.558;8.674;2023-05-10T16:40:53;3.03;;;0.90;;
21769;SDS011;11046;49.558;8.674;2023-05-10T16:43:54;1.58;;;1.05;;
21769;SDS011;11046;49.558;8.674;2023-05-10T16:46:56;1.70;;;1.02;;
21769;SDS011;11046;49.558;8.674;2023-05-10T16:49:57;1.35;;;1.10;;
21769;SDS011;11046;49.558;8.674;2023-05-10T16:52:57;0.98;;;0.70;;
21769;SDS011;11046;49.558;8.674;2023-05-10T16:55:58;0.63;;;0.63;;
21769;SDS011;11046;49.558;8.674;2023-05-10T16:58:58;2.03;;;0.63;;
21769;SDS011;11046;49.558;8.674;2023-05-10T17:01:59;4.32;;;1.00;;
21769;SDS011;11046;49.558;8.674;2023-05-10T17:05:00;1.67;;;0.70;;
21769;SDS011;11046;49.558;8.674;2023-05-10T17:08:00;6.38;;;0.90;;
21769;SDS011;11046;49.558;8.674;2023-05-10T17:11:01;1.83;;;0.93;;
21769;SDS011;11046;49.558;8.674;2023-05-10T17:14:04;1.35;;;0.90;;
21769;SDS011;11046;49.558;8.674;2023-05-10T17:17:05;2.50;;;0.80;;
21769;SDS011;11046;49.558;8.674;2023-05-10T17:20:06;1.23;;;1.10;;
21769;SDS011;11046;49.558;8.674;2023-05-10T17:23:07;2.45;;;1.00;;
21769;SDS011;11046;49.558;8.674;2023-05-10T17:26:07;4.18;;;0.80;;
21769;SDS011;11046;49.558;8.674;2023-05-10T17:29:08;1.33;;;0.98;;
21769;SDS011;11046;49.558;8.674;2023-05-10T17:32:09;2.45;;;0.93;;
21769;SDS011;11046;49.558;8.674;2023-05-10T17:35:10;3.38;;;1.27;;
21769;SDS011;11046;49.558;8.674;2023-05-10T17:38:10;4.82;;;1.27;;
21769;SDS011;11046;49.558;8.674;2023-05-10T17:41:11;2.55;;;1.10;;
21769;SDS011;11046;49.558;8.674;2023-05-10T17:44:13;1.50;;;1.00;;
21769;SDS011;11046;49.558;8.674;2023-05-10T17:47:13;1.42;;;0.98;;
21769;SDS011;11046;49.558;8.674;2023-05-10T17:50:14;6.80;;;3.90;;
21769;SDS011;11046;49.558;8.674;2023-05-10T17:53:14;4.90;;;1.10;;
21769;SDS011;11046;49.558;8.674;2023-05-10T17:56:15;10.50;;;1.13;;
21769;SDS011;11046;49.558;8.674;2023-05-10T17:59:16;4.47;;;1.33;;
21769;SDS011;11046;49.558;8.674;2023-05-10T18:02:16;1.27;;;1.00;;
21769;SDS011;11046;49.558;8.674;2023-05-10T18:05:17;8.15;;;1.00;;
21769;SDS011;11046;49.558;8.674;2023-05-10T18:08:17;5.88;;;0.90;;
21769;SDS011;11046;49.558;8.674;2023-05-10T18:11:21;3.65;;;0.90;;
21769;SDS011;11046;49.558;8.674;2023-05-10T18:14:22;2.50;;;1.00;;
21769;SDS011;11046;49.558;8.674;2023-05-10T18:17:24;4.72;;;1.35;;
21769;SDS011;11046;49.558;8.674;2023-05-10T18:20:25;3.30;;;1.25;;
21769;SDS011;11046;49.558;8.674;2023-05-10T18:23:25;3.15;;;1.15;;
21769;SDS011;11046;49.558;8.674;2023-05-10T18:26:26;1.15;;;1.08;;
21769;SDS011;11046;49.558;8.674;2023-05-10T18:29:27;2.33;;;1.63;;
21769;SDS011;11046;49.558;8.674;2023-05-10T18:32:27;4.13;;;1.60;;
21769;SDS011;11046;49.558;8.674;2023-05-10T18:35:28;2.85;;;1.40;;
21769;SDS011;11046;49.558;8.674;2023-05-10T18:38:28;2.25;;;1.50;;
21769;SDS011;11046;49.558;8.674;2023-05-10T18:41:29;1.30;;;1.13;;
21769;SDS011;11046;49.558;8.674;2023-05-10T18:44:30;3.30;;;1.02;;
21769;SDS011;11046;49.558;8.674;2023-05-10T18:47:31;2.45;;;1.23;;
21769;SDS011;11046;49.558;8.674;2023-05-10T18:50:31;4.43;;;1.05;;